createdAt,value
2022-12-05T00:02:25.861Z,6.90
2022-12-05T00:04:52.674Z,6.90
2022-12-05T00:07:19.378Z,6.80
2022-12-05T00:09:46.002Z,6.90
2022-12-05T00:12:12.667Z,6.90
2022-12-05T00:14:39.372Z,6.90
2022-12-05T00:17:06.046Z,6.90
2022-12-05T00:19:32.743Z,6.90
2022-12-05T00:21:59.344Z,6.70
2022-12-05T00:24:26.339Z,6.80
2022-12-05T00:26:53.021Z,6.90
2022-12-05T00:29:19.698Z,6.70
2022-12-05T00:31:46.457Z,6.90
2022-12-05T00:34:13.211Z,6.80
2022-12-05T00:36:39.989Z,6.80
2022-12-05T00:39:07.833Z,6.70
2022-12-05T00:41:34.537Z,6.70
2022-12-05T00:44:01.352Z,6.60
2022-12-05T00:46:28.670Z,6.70
2022-12-05T00:48:55.909Z,6.60
2022-12-05T00:51:23.523Z,6.70
2022-12-05T00:53:50.210Z,6.70
2022-12-05T00:56:17.849Z,6.70
2022-12-05T00:58:44.668Z,6.70
2022-12-05T01:01:15.608Z,6.90
2022-12-05T01:03:42.754Z,7.00
2022-12-05T01:06:10.947Z,7.00
2022-12-05T01:08:37.783Z,7.00
2022-12-05T01:11:04.744Z,6.90
2022-12-05T01:13:31.430Z,6.30
2022-12-05T01:15:58.093Z,6.10
2022-12-05T01:18:24.844Z,5.90
2022-12-05T01:20:51.692Z,5.90
2022-12-05T01:23:18.414Z,5.90
2022-12-05T01:25:45.963Z,6.00
2022-12-05T01:28:12.685Z,6.60
2022-12-05T01:30:39.806Z,6.50
2022-12-05T01:33:06.786Z,6.80
2022-12-05T01:35:36.583Z,6.90
2022-12-05T01:38:03.381Z,6.90
2022-12-05T01:40:30.078Z,6.70
2022-12-05T01:42:56.864Z,6.20
2022-12-05T01:45:33.536Z,6.20
2022-12-05T01:48:00.560Z,6.40
2022-12-05T01:50:27.306Z,6.80
2022-12-05T01:52:54.024Z,6.70
2022-12-05T01:55:20.704Z,6.50
2022-12-05T01:57:47.666Z,6.20
2022-12-05T02:00:15.843Z,6.30
2022-12-05T02:02:43.659Z,6.10
2022-12-05T02:05:17.707Z,6.10
2022-12-05T02:07:44.517Z,6.40
2022-12-05T02:10:11.357Z,6.40
2022-12-05T02:12:39.115Z,6.40
2022-12-05T02:15:14.960Z,6.40
2022-12-05T02:17:53.784Z,6.30
2022-12-05T02:20:23.559Z,6.20
2022-12-05T02:23:08.584Z,6.50
2022-12-05T02:25:38.240Z,6.60
2022-12-05T02:28:17.223Z,6.60
2022-12-05T02:30:50.585Z,6.50
2022-12-05T02:33:37.526Z,6.50
2022-12-05T02:36:07.905Z,6.50
2022-12-05T02:38:37.908Z,6.50
2022-12-05T02:41:16.874Z,6.60
2022-12-05T02:44:09.995Z,6.70
2022-12-05T02:46:37.319Z,6.90
2022-12-05T02:49:11.362Z,6.90
2022-12-05T02:51:41.884Z,6.90
2022-12-05T02:54:09.978Z,6.70
2022-12-05T02:56:36.667Z,6.90
2022-12-05T02:59:03.475Z,6.80
2022-12-05T03:01:30.831Z,6.60
2022-12-05T03:03:58.127Z,6.70
2022-12-05T03:06:24.944Z,6.80
2022-12-05T03:09:10.374Z,6.70
2022-12-05T03:11:38.372Z,6.70
2022-12-05T03:14:05.543Z,6.70
2022-12-05T03:16:33.621Z,6.60
2022-12-05T03:19:03.768Z,6.60
2022-12-05T03:21:30.472Z,6.40
2022-12-05T03:23:58.275Z,6.40
2022-12-05T03:26:29.817Z,6.30
2022-12-05T03:28:56.470Z,6.40
2022-12-05T03:31:40.081Z,6.20
2022-12-05T03:34:07.230Z,6.20
2022-12-05T03:36:38.391Z,6.30
2022-12-05T03:39:23.959Z,6.30
2022-12-05T03:41:56.755Z,6.40
2022-12-05T03:44:31.642Z,6.40
2022-12-05T03:47:00.571Z,6.30
2022-12-05T03:49:34.338Z,6.30
2022-12-05T03:52:06.416Z,6.20
2022-12-05T03:54:37.877Z,6.10
2022-12-05T03:57:05.976Z,6.40
2022-12-05T03:59:35.746Z,6.60
2022-12-05T04:02:04.555Z,6.40
2022-12-05T04:04:33.943Z,6.30
2022-12-05T04:07:01.244Z,6.40
2022-12-05T04:09:28.699Z,6.20
2022-12-05T04:11:57.823Z,6.20
2022-12-05T04:14:35.643Z,6.40
2022-12-05T04:17:03.432Z,6.30
2022-12-05T04:19:58.473Z,6.40
2022-12-05T04:22:25.459Z,6.20
2022-12-05T04:25:11.347Z,6.30
2022-12-05T04:27:40.923Z,6.30
2022-12-05T04:30:12.389Z,6.50
2022-12-05T04:32:45.795Z,6.40
2022-12-05T04:35:18.115Z,6.50
2022-12-05T04:37:45.546Z,6.20
2022-12-05T04:40:19.933Z,6.20
2022-12-05T04:42:46.594Z,6.20
2022-12-05T04:45:13.491Z,6.10
2022-12-05T04:47:42.242Z,6.10
2022-12-05T04:50:09.244Z,6.10
2022-12-05T04:52:36.195Z,6.20
2022-12-05T04:55:07.963Z,6.10
2022-12-05T04:57:40.954Z,6.30
2022-12-05T05:00:08.244Z,6.40
2022-12-05T05:02:37.126Z,6.40
2022-12-05T05:05:05.546Z,6.50
2022-12-05T05:07:33.961Z,6.40
2022-12-05T05:10:00.877Z,6.20
2022-12-05T05:12:27.664Z,6.20
2022-12-05T05:14:54.425Z,6.10
2022-12-05T05:17:21.166Z,6.20
2022-12-05T05:19:47.809Z,6.30
2022-12-05T05:22:14.499Z,6.20
2022-12-05T05:24:41.120Z,6.20
2022-12-05T05:27:07.787Z,6.20
2022-12-05T05:29:34.441Z,6.00
2022-12-05T05:32:03.706Z,6.10
2022-12-05T05:34:30.403Z,6.20
2022-12-05T05:36:57.026Z,6.30
2022-12-05T05:39:23.699Z,6.40
2022-12-05T05:41:50.332Z,6.30
2022-12-05T05:44:16.944Z,6.20
2022-12-05T05:46:43.680Z,6.30
2022-12-05T05:49:10.576Z,6.40
2022-12-05T05:51:37.249Z,6.40
2022-12-05T05:54:04.051Z,6.30
2022-12-05T05:56:30.876Z,6.30
2022-12-05T05:58:58.616Z,6.20
2022-12-05T06:01:25.309Z,6.30
2022-12-05T06:03:52.062Z,6.20
2022-12-05T06:06:18.912Z,6.40
2022-12-05T06:08:45.667Z,6.20
2022-12-05T06:11:13.354Z,6.10
2022-12-05T06:13:40.064Z,6.00
2022-12-05T06:16:07.659Z,6.10
2022-12-05T06:18:34.387Z,6.30
2022-12-05T06:21:01.168Z,6.20
2022-12-05T06:23:27.903Z,6.30
2022-12-05T06:25:55.016Z,6.30
2022-12-05T06:28:22.009Z,6.40
2022-12-05T06:30:48.803Z,6.50
2022-12-05T06:33:15.521Z,6.60
2022-12-05T06:35:42.941Z,6.50
2022-12-05T06:38:09.773Z,6.40
2022-12-05T06:40:39.777Z,6.40
2022-12-05T06:43:06.582Z,6.30
2022-12-05T06:45:33.409Z,6.10
2022-12-05T06:48:00.128Z,6.10
2022-12-05T06:50:26.856Z,6.10
2022-12-05T06:52:53.548Z,6.30
2022-12-05T06:55:20.232Z,6.30
2022-12-05T06:57:46.923Z,6.30
2022-12-05T07:00:32.713Z,6.30
2022-12-05T07:02:59.395Z,6.30
2022-12-05T07:05:26.071Z,6.20
2022-12-05T07:07:52.766Z,6.20
2022-12-05T07:10:19.473Z,6.10
2022-12-05T07:12:46.182Z,6.20
2022-12-05T07:15:12.934Z,6.30
2022-12-05T07:17:39.775Z,6.40
2022-12-05T07:20:07.219Z,6.40
2022-12-05T07:22:35.630Z,6.40
2022-12-05T07:25:02.375Z,6.20
2022-12-05T07:27:29.108Z,6.30
2022-12-05T07:29:56.354Z,6.40
2022-12-05T07:32:23.310Z,6.50
2022-12-05T07:34:55.252Z,6.60
2022-12-05T07:37:22.613Z,6.70
2022-12-05T07:39:49.262Z,6.50
2022-12-05T07:42:16.087Z,6.30
2022-12-05T07:44:42.766Z,6.40
2022-12-05T07:47:09.398Z,6.70
2022-12-05T07:49:36.904Z,6.80
2022-12-05T07:52:03.753Z,6.70
2022-12-05T07:54:30.490Z,6.70
2022-12-05T07:56:57.153Z,6.80
2022-12-05T07:59:23.869Z,6.80
2022-12-05T08:01:50.654Z,6.60
2022-12-05T08:04:17.410Z,6.60
2022-12-05T08:06:44.087Z,6.70
2022-12-05T08:09:10.814Z,6.60
2022-12-05T08:11:37.709Z,6.70
2022-12-05T08:14:04.816Z,6.60
2022-12-05T08:16:31.991Z,6.60
2022-12-05T08:18:59.516Z,6.90
2022-12-05T08:21:26.273Z,6.70
2022-12-05T08:23:53.075Z,6.60
2022-12-05T08:26:21.458Z,6.50
2022-12-05T08:28:51.178Z,6.60
2022-12-05T08:31:18.085Z,6.80
2022-12-05T08:33:44.854Z,6.80
2022-12-05T08:36:12.293Z,6.80
2022-12-05T08:38:39.151Z,6.80
2022-12-05T08:41:06.670Z,6.80
2022-12-05T08:43:33.433Z,6.90
2022-12-05T08:46:00.254Z,7.10
2022-12-05T08:48:29.478Z,6.90
2022-12-05T08:50:56.702Z,6.40
2022-12-05T08:53:23.340Z,6.50
2022-12-05T08:55:50.062Z,6.80
2022-12-05T08:58:16.863Z,7.10
2022-12-05T09:00:43.659Z,6.50
2022-12-05T09:03:11.004Z,6.00
2022-12-05T09:05:37.746Z,6.30
2022-12-05T09:08:04.596Z,6.20
2022-12-05T09:10:31.535Z,6.50
2022-12-05T09:12:58.150Z,6.40
2022-12-05T09:15:24.918Z,6.60
2022-12-05T09:17:51.677Z,6.80
2022-12-05T09:20:18.401Z,7.00
2022-12-05T09:22:45.206Z,6.90
2022-12-05T09:25:12.059Z,6.90
2022-12-05T09:27:39.008Z,7.10
2022-12-05T09:30:06.309Z,7.30
2022-12-05T09:32:33.275Z,7.10
2022-12-05T09:35:00.356Z,7.00
2022-12-05T09:37:42.395Z,7.30
2022-12-05T09:40:15.008Z,7.10
2022-12-05T09:42:47.703Z,7.20
2022-12-05T09:45:30.559Z,7.20
2022-12-05T09:48:01.513Z,7.50
2022-12-05T09:50:28.509Z,7.50
2022-12-05T09:53:13.926Z,7.60
2022-12-05T09:55:40.717Z,7.80
2022-12-05T09:58:13.451Z,8.10
2022-12-05T10:00:40.148Z,8.10
2022-12-05T10:03:09.888Z,8.20
2022-12-05T10:05:51.844Z,8.00
2022-12-05T10:08:22.946Z,7.90
2022-12-05T10:10:52.923Z,7.80
2022-12-05T10:13:22.876Z,7.60
2022-12-05T10:15:55.711Z,7.60
2022-12-05T10:18:29.994Z,7.80
2022-12-05T10:20:59.758Z,7.70
2022-12-05T10:23:56.033Z,7.10
2022-12-05T10:26:15.707Z,7.20
2022-12-05T10:28:53.070Z,7.00
2022-12-05T10:31:20.764Z,7.20
2022-12-05T10:33:47.794Z,7.50
2022-12-05T10:36:14.690Z,7.70
2022-12-05T10:38:42.148Z,7.70
2022-12-05T10:41:09.309Z,7.70
2022-12-05T10:43:37.371Z,7.70
2022-12-05T10:46:05.644Z,7.30
2022-12-05T10:48:37.999Z,7.30
2022-12-05T10:51:05.039Z,7.40
2022-12-05T10:53:35.926Z,7.60
2022-12-05T10:58:56.610Z,7.50
2022-12-05T11:01:24.302Z,6.90
2022-12-05T11:03:56.327Z,7.10
2022-12-05T11:06:29.817Z,7.50
2022-12-05T11:09:05.610Z,7.70
2022-12-05T11:11:33.503Z,6.80
2022-12-05T11:14:01.146Z,7.10
2022-12-05T11:16:32.975Z,7.60
2022-12-05T11:19:20.083Z,7.30
2022-12-05T11:21:46.945Z,7.50
2022-12-05T11:24:21.400Z,7.70
2022-12-05T11:26:48.146Z,7.20
2022-12-05T11:29:33.561Z,7.50
2022-12-05T11:32:00.297Z,7.50
2022-12-05T11:34:31.723Z,7.70
2022-12-05T11:37:00.612Z,7.50
2022-12-05T11:39:27.328Z,7.60
2022-12-05T11:41:57.533Z,7.80
2022-12-05T11:44:30.997Z,7.60
2022-12-05T11:47:16.617Z,8.00
2022-12-05T11:49:43.482Z,8.20
2022-12-05T11:52:13.011Z,8.10
2022-12-05T11:55:04.620Z,8.00
2022-12-05T11:57:35.989Z,8.10
2022-12-05T12:00:11.798Z,8.00
2022-12-05T12:02:53.912Z,7.80
2022-12-05T12:05:26.766Z,7.40
2022-12-05T12:08:08.790Z,7.20
2022-12-05T12:10:40.272Z,7.50
2022-12-05T12:13:23.536Z,7.70
2022-12-05T12:15:50.419Z,7.60
2022-12-05T12:18:21.565Z,7.80
2022-12-05T12:20:57.294Z,7.90
2022-12-05T12:23:47.376Z,7.80
2022-12-05T12:26:40.304Z,7.90
2022-12-05T12:29:17.419Z,7.80
2022-12-05T12:31:50.801Z,7.90
2022-12-05T12:34:26.806Z,7.80
2022-12-05T12:36:59.789Z,7.60
2022-12-05T12:39:30.364Z,7.60
2022-12-05T12:42:13.237Z,7.70
2022-12-05T12:44:45.469Z,7.70
2022-12-05T12:47:21.517Z,7.70
2022-12-05T12:49:48.215Z,7.70
2022-12-05T12:52:16.184Z,7.80
2022-12-05T12:55:05.425Z,7.90
2022-12-05T12:57:36.236Z,7.90
2022-12-05T13:00:06.112Z,7.60
2022-12-05T13:02:36.815Z,7.50
2022-12-05T13:05:08.127Z,7.60
2022-12-05T13:07:37.421Z,7.60
2022-12-05T13:10:12.416Z,7.60
2022-12-05T13:12:39.224Z,7.40
2022-12-05T13:15:07.640Z,7.10
2022-12-05T13:17:34.412Z,7.10
2022-12-05T13:20:01.146Z,7.50
2022-12-05T13:22:28.188Z,7.60
2022-12-05T13:24:54.895Z,7.30
2022-12-05T13:27:30.468Z,7.20
2022-12-05T13:29:58.515Z,7.10
2022-12-05T13:32:27.091Z,6.60
2022-12-05T13:34:53.947Z,6.40
2022-12-05T13:37:43.726Z,6.60
2022-12-05T13:40:42.918Z,7.00
2022-12-05T13:43:10.585Z,7.40
2022-12-05T13:45:37.361Z,7.10
2022-12-05T13:48:14.203Z,6.90
2022-12-05T13:50:43.296Z,7.30
2022-12-05T13:53:25.060Z,7.60
2022-12-05T13:56:02.437Z,6.90
2022-12-05T13:58:48.720Z,7.20
2022-12-05T14:01:24.944Z,7.30
2022-12-05T14:03:51.850Z,7.30
2022-12-05T14:06:39.522Z,7.50
2022-12-05T14:09:18.385Z,7.40
2022-12-05T14:12:23.696Z,7.10
2022-12-05T14:14:56.700Z,7.40
2022-12-05T14:17:24.243Z,7.50
2022-12-05T14:20:05.976Z,7.60
2022-12-05T14:22:41.352Z,7.60
2022-12-05T14:25:26.944Z,7.50
2022-12-05T14:28:02.241Z,7.50
2022-12-05T14:30:41.672Z,7.60
2022-12-05T14:33:15.882Z,7.80
2022-12-05T14:35:46.072Z,7.70
2022-12-05T14:38:28.897Z,7.80
2022-12-05T14:41:06.009Z,7.50
2022-12-05T14:43:33.389Z,7.50
2022-12-05T14:46:20.348Z,7.70
2022-12-05T14:48:48.427Z,7.50
2022-12-05T14:51:27.557Z,7.80
2022-12-05T14:53:54.271Z,7.60
2022-12-05T14:56:21.758Z,7.60
2022-12-05T14:58:48.776Z,7.60
2022-12-05T15:01:16.888Z,7.80
2022-12-05T15:03:58.865Z,7.50
2022-12-05T15:06:25.963Z,7.40
2022-12-05T15:08:55.190Z,7.50
2022-12-05T15:11:28.566Z,7.40
2022-12-05T15:14:10.849Z,7.50
2022-12-05T15:16:37.904Z,7.50
2022-12-05T15:19:05.904Z,7.40
2022-12-05T15:21:33.743Z,7.30
2022-12-05T15:24:04.723Z,7.10
2022-12-05T15:26:49.446Z,7.20
2022-12-05T15:29:18.201Z,7.30
2022-12-05T15:31:51.907Z,7.50
2022-12-05T15:34:23.934Z,7.50
2022-12-05T15:36:52.180Z,7.30
2022-12-05T15:39:23.573Z,7.60
2022-12-05T15:41:51.611Z,7.50
2022-12-05T15:44:25.298Z,7.50
2022-12-05T15:46:54.475Z,7.50
2022-12-05T15:49:23.252Z,7.40
2022-12-05T15:51:50.747Z,7.40
2022-12-05T15:54:26.192Z,7.40
2022-12-05T15:57:00.594Z,7.30
2022-12-05T15:59:35.969Z,7.30
2022-12-05T16:02:10.285Z,7.60
2022-12-05T16:04:38.881Z,7.80
2022-12-05T16:07:06.538Z,7.80
2022-12-05T16:09:33.357Z,7.70
2022-12-05T16:12:04.054Z,7.60
2022-12-05T16:14:58.416Z,7.60
2022-12-05T16:17:19.136Z,7.60
2022-12-05T16:19:46.000Z,7.60
2022-12-05T16:22:12.677Z,7.60
2022-12-05T16:24:40.377Z,7.70
2022-12-05T16:27:13.612Z,7.40
2022-12-05T16:29:40.344Z,7.10
2022-12-05T16:32:14.302Z,7.20
2022-12-05T16:34:41.235Z,7.00
2022-12-05T16:37:14.830Z,7.30
2022-12-05T16:39:43.796Z,7.00
2022-12-05T16:42:26.328Z,7.00
2022-12-05T16:45:01.606Z,7.00
2022-12-05T16:47:40.762Z,7.00
2022-12-05T16:50:22.868Z,7.00
2022-12-05T16:52:49.796Z,7.20
2022-12-05T16:55:17.109Z,7.40
2022-12-05T16:57:43.897Z,7.50
2022-12-05T17:00:14.368Z,7.30
2022-12-05T17:02:41.074Z,7.50
2022-12-05T17:05:12.470Z,7.50
2022-12-05T17:07:39.170Z,7.60
2022-12-05T17:10:06.259Z,7.70
2022-12-05T17:12:32.992Z,7.60
2022-12-05T17:14:59.895Z,7.70
2022-12-05T17:17:26.767Z,7.70
2022-12-05T17:19:54.060Z,7.60
2022-12-05T17:22:20.800Z,7.10
2022-12-05T17:24:47.447Z,6.70
2022-12-05T17:27:15.224Z,6.80
2022-12-05T17:29:41.915Z,7.00
2022-12-05T17:32:09.628Z,6.70
2022-12-05T17:34:36.349Z,6.90
2022-12-05T17:37:03.015Z,7.10
2022-12-05T17:39:29.669Z,7.20
2022-12-05T17:41:56.417Z,7.10
2022-12-05T17:44:23.270Z,7.30
2022-12-05T17:46:50.045Z,7.40
2022-12-05T17:49:16.916Z,7.20
2022-12-05T17:52:05.403Z,7.10
2022-12-05T17:54:30.517Z,7.30
2022-12-05T17:56:57.228Z,6.90
2022-12-05T17:59:24.027Z,6.60
2022-12-05T18:01:50.755Z,6.70
2022-12-05T18:04:22.657Z,6.90
2022-12-05T18:06:49.931Z,7.20
2022-12-05T18:09:16.568Z,7.10
2022-12-05T18:11:43.213Z,7.30
2022-12-05T18:14:10.489Z,7.30
2022-12-05T18:16:37.724Z,7.30
2022-12-05T18:19:04.548Z,7.30
2022-12-05T18:21:31.366Z,7.30
2022-12-05T18:23:58.119Z,7.40
2022-12-05T18:26:24.910Z,7.50
2022-12-05T18:28:53.704Z,7.40
2022-12-05T18:31:20.479Z,7.50
2022-12-05T18:33:47.221Z,7.60
2022-12-05T18:36:15.844Z,7.50
2022-12-05T18:38:45.444Z,7.20
2022-12-05T18:41:12.080Z,7.40
2022-12-05T18:43:40.152Z,7.40
2022-12-05T18:46:06.932Z,7.40
2022-12-05T18:48:44.789Z,7.40
2022-12-05T18:51:14.708Z,7.30
2022-12-05T18:53:41.678Z,7.40
2022-12-05T18:56:27.202Z,7.20
2022-12-05T18:58:54.198Z,7.30
2022-12-05T19:01:21.254Z,7.50
2022-12-05T19:03:48.242Z,7.20
2022-12-05T19:06:15.958Z,7.00
2022-12-05T19:08:44.382Z,6.50
2022-12-05T19:11:11.748Z,6.40
2022-12-05T19:13:38.552Z,6.50
2022-12-05T19:16:06.055Z,6.40
2022-12-05T19:18:32.833Z,6.60
2022-12-05T19:20:59.563Z,6.40
2022-12-05T19:23:26.276Z,6.50
2022-12-05T19:25:59.264Z,6.70
2022-12-05T19:28:26.094Z,6.80
2022-12-05T19:30:59.683Z,7.10
2022-12-05T19:33:29.811Z,7.30
2022-12-05T19:35:56.481Z,7.40
2022-12-05T19:38:23.135Z,7.50
2022-12-05T19:40:57.103Z,7.40
2022-12-05T19:43:23.775Z,7.10
2022-12-05T19:45:52.198Z,7.10
2022-12-05T19:48:18.960Z,7.00
2022-12-05T19:50:45.585Z,6.90
2022-12-05T19:53:12.427Z,6.90
2022-12-05T19:55:39.105Z,6.90
2022-12-05T19:58:05.802Z,7.00
2022-12-05T20:00:32.547Z,7.10
2022-12-05T20:02:59.373Z,7.20
2022-12-05T20:05:26.070Z,7.30
2022-12-05T20:07:52.840Z,7.00
2022-12-05T20:10:19.650Z,6.80
2022-12-05T20:12:46.414Z,6.60
2022-12-05T20:15:13.189Z,6.90
2022-12-05T20:17:39.922Z,6.90
2022-12-05T20:20:07.004Z,7.00
2022-12-05T20:22:33.729Z,7.10
2022-12-05T20:25:00.879Z,7.00
2022-12-05T20:27:27.576Z,7.00
2022-12-05T20:29:54.295Z,7.10
2022-12-05T20:32:20.969Z,7.00
2022-12-05T20:34:47.727Z,7.00
2022-12-05T20:37:14.409Z,7.00
2022-12-05T20:39:41.214Z,7.10
2022-12-05T20:42:07.945Z,7.10
2022-12-05T20:44:37.241Z,7.00
2022-12-05T20:47:03.956Z,7.10
2022-12-05T20:49:30.706Z,7.10
2022-12-05T20:51:57.340Z,7.20
2022-12-05T20:54:24.024Z,7.20
2022-12-05T20:56:50.777Z,7.10
2022-12-05T20:59:17.737Z,7.00
2022-12-05T21:01:47.214Z,6.80
2022-12-05T21:04:14.112Z,7.00
2022-12-05T21:06:42.869Z,6.90
2022-12-05T21:09:15.359Z,6.70
2022-12-05T21:11:43.048Z,6.50
2022-12-05T21:14:09.744Z,6.80
2022-12-05T21:16:36.521Z,6.80
2022-12-05T21:19:03.251Z,6.80
2022-12-05T21:21:30.023Z,7.00
2022-12-05T21:23:57.416Z,7.00
2022-12-05T21:26:24.423Z,7.00
2022-12-05T21:28:51.298Z,7.10
2022-12-05T21:31:19.218Z,7.20
2022-12-05T21:33:46.905Z,7.10
2022-12-05T21:36:13.646Z,7.10
2022-12-05T21:38:40.264Z,7.20
2022-12-05T21:41:06.992Z,7.20
2022-12-05T21:43:34.152Z,7.30
2022-12-05T21:46:00.918Z,7.40
2022-12-05T21:48:27.989Z,7.00
2022-12-05T21:50:54.812Z,6.90
2022-12-05T21:53:21.585Z,6.80
2022-12-05T21:55:48.252Z,6.90
2022-12-05T21:58:14.941Z,6.90
2022-12-05T22:00:42.018Z,6.80
2022-12-05T22:03:12.796Z,7.00
2022-12-05T22:05:39.880Z,6.90
2022-12-05T22:08:06.945Z,7.00
2022-12-05T22:10:36.699Z,7.10
2022-12-05T22:13:03.663Z,7.10
2022-12-05T22:15:30.613Z,7.10
2022-12-05T22:17:57.304Z,7.10
2022-12-05T22:20:23.975Z,7.10
2022-12-05T22:22:50.799Z,6.90
2022-12-05T22:25:17.510Z,7.20
2022-12-05T22:27:44.233Z,6.90
2022-12-05T22:30:11.115Z,6.80
2022-12-05T22:32:38.013Z,6.90
2022-12-05T22:35:04.792Z,7.10
2022-12-05T22:37:31.627Z,7.20
2022-12-05T22:39:58.908Z,7.20
2022-12-05T22:42:26.235Z,7.20
2022-12-05T22:44:52.875Z,6.80
2022-12-05T22:47:19.581Z,7.10
2022-12-05T22:49:46.251Z,7.20
2022-12-05T22:52:15.339Z,7.30
2022-12-05T22:54:42.069Z,7.20
2022-12-05T22:57:08.756Z,7.40
2022-12-05T22:59:35.422Z,7.50
2022-12-05T23:02:02.094Z,7.50
2022-12-05T23:04:28.817Z,7.30
2022-12-05T23:06:55.591Z,7.40
2022-12-05T23:09:22.366Z,7.40
2022-12-05T23:11:50.114Z,7.40
2022-12-05T23:14:16.806Z,7.30
2022-12-05T23:16:43.607Z,7.50
2022-12-05T23:19:10.391Z,7.40
2022-12-05T23:21:38.137Z,7.30
2022-12-05T23:24:08.842Z,7.40
2022-12-05T23:26:36.591Z,7.40
2022-12-05T23:29:03.508Z,7.40
2022-12-05T23:31:30.233Z,7.20
2022-12-05T23:34:02.622Z,7.10
2022-12-05T23:36:30.125Z,7.10
2022-12-05T23:38:56.804Z,6.90
2022-12-05T23:41:23.707Z,7.00
2022-12-05T23:43:50.691Z,7.10
2022-12-05T23:46:18.073Z,7.00
2022-12-05T23:48:45.023Z,7.10
2022-12-05T23:51:12.701Z,7.30
2022-12-05T23:53:40.018Z,7.30
2022-12-05T23:56:07.806Z,7.20
2022-12-05T23:58:34.573Z,7.20
